createdAt,value
2016-12-24T00:00:04.007Z,0
2016-12-24T00:01:03.986Z,0
2016-12-24T00:02:03.970Z,0
2016-12-24T00:03:04.256Z,0
2016-12-24T00:04:03.940Z,0
2016-12-24T00:05:03.926Z,0
2016-12-24T00:06:03.919Z,0
2016-12-24T00:07:03.896Z,0
2016-12-24T00:08:03.883Z,0
2016-12-24T00:09:03.866Z,0
2016-12-24T00:10:04.400Z,0
2016-12-24T00:11:03.834Z,0
2016-12-24T00:12:03.821Z,0
2016-12-24T00:13:03.809Z,0
2016-12-24T00:14:03.791Z,0
2016-12-24T00:15:03.781Z,0
2016-12-24T00:16:03.763Z,0
2016-12-24T00:17:03.749Z,0
2016-12-24T00:18:03.737Z,0
2016-12-24T00:19:03.721Z,0
2016-12-24T00:20:03.704Z,0
2016-12-24T00:21:03.689Z,0
2016-12-24T00:22:03.676Z,0
2016-12-24T00:23:03.669Z,0
2016-12-24T00:24:03.645Z,0
2016-12-24T00:25:03.630Z,0
2016-12-24T00:26:03.613Z,0
2016-12-24T00:27:03.604Z,0
2016-12-24T00:28:03.890Z,0
2016-12-24T00:29:03.574Z,0
2016-12-24T00:30:03.556Z,0
2016-12-24T00:31:03.569Z,0
2016-12-24T00:32:03.826Z,0
2016-12-24T00:33:03.815Z,0
2016-12-24T00:34:03.797Z,0
2016-12-24T00:35:03.481Z,0
2016-12-24T00:36:03.470Z,0
2016-12-24T00:37:03.463Z,0
2016-12-24T00:38:03.440Z,0
2016-12-24T00:39:03.421Z,0
2016-12-24T00:40:03.406Z,0
2016-12-24T00:41:03.702Z,0
2016-12-24T00:42:03.384Z,0
2016-12-24T00:43:03.365Z,0
2016-12-24T00:44:03.375Z,0
2016-12-24T00:45:03.338Z,0
2016-12-24T00:46:03.317Z,0
2016-12-24T00:47:03.307Z,0
2016-12-24T00:48:03.294Z,0
2016-12-24T00:49:03.305Z,0
2016-12-24T00:50:03.260Z,0
2016-12-24T00:51:03.247Z,0
2016-12-24T00:52:03.536Z,0
2016-12-24T00:53:03.218Z,0
2016-12-24T00:54:03.199Z,0
2016-12-24T00:55:03.186Z,0
2016-12-24T00:56:03.174Z,0
2016-12-24T00:57:03.464Z,0
2016-12-24T00:58:03.145Z,0
2016-12-24T00:59:03.134Z,0
2016-12-24T01:00:03.111Z,0
2016-12-24T01:01:03.096Z,0
2016-12-24T01:02:03.389Z,0
2016-12-24T01:03:03.068Z,0
2016-12-24T01:04:03.054Z,0
2016-12-24T01:05:03.041Z,0
2016-12-24T01:06:03.025Z,0
2016-12-24T01:07:03.014Z,0
2016-12-24T01:08:02.991Z,0
2016-12-24T01:09:02.979Z,0
2016-12-24T01:10:02.966Z,0
2016-12-24T01:11:02.971Z,0
2016-12-24T01:12:02.935Z,0
2016-12-24T01:13:02.923Z,0
2016-12-24T01:14:03.213Z,0
2016-12-24T01:15:02.888Z,0
2016-12-24T01:16:02.884Z,0
2016-12-24T01:17:02.859Z,0
2016-12-24T01:18:02.849Z,0
2016-12-24T01:19:02.834Z,0
2016-12-24T01:20:02.816Z,0
2016-12-24T01:21:02.801Z,0
2016-12-24T01:22:02.786Z,0
2016-12-24T01:23:02.771Z,0
2016-12-24T01:24:03.062Z,0
2016-12-24T01:25:02.743Z,0
2016-12-24T01:26:02.727Z,0
2016-12-24T01:27:02.712Z,0
2016-12-24T01:28:02.701Z,0
2016-12-24T01:29:02.684Z,0
2016-12-24T01:30:02.671Z,0
2016-12-24T01:31:02.661Z,0
2016-12-24T01:32:02.639Z,0
2016-12-24T01:33:02.626Z,0
2016-12-24T01:34:02.618Z,0
2016-12-24T01:35:02.902Z,0
2016-12-24T01:36:02.608Z,0
2016-12-24T01:37:02.568Z,0
2016-12-24T01:38:02.554Z,0
2016-12-24T01:39:02.538Z,0
2016-12-24T01:40:02.524Z,0
2016-12-24T01:41:02.509Z,0
2016-12-24T01:42:02.500Z,0
2016-12-24T01:43:02.794Z,0
2016-12-24T01:44:02.466Z,0
2016-12-24T01:45:02.454Z,0
2016-12-24T01:46:02.462Z,0
2016-12-24T01:47:02.744Z,0
2016-12-24T01:48:02.708Z,0
2016-12-24T01:49:02.391Z,0
2016-12-24T01:50:02.379Z,0
2016-12-24T01:51:02.364Z,0
2016-12-24T01:52:02.350Z,0
2016-12-24T01:53:02.335Z,0
2016-12-24T01:54:02.321Z,0
2016-12-24T01:55:02.310Z,0
2016-12-24T01:56:02.291Z,0
2016-12-24T01:57:02.278Z,0
2016-12-24T01:58:02.263Z,0
2016-12-24T01:59:02.251Z,0
2016-12-24T02:00:02.239Z,0
2016-12-24T02:01:02.528Z,0
2016-12-24T02:02:02.205Z,0
2016-12-24T02:03:02.192Z,0
2016-12-24T02:04:02.177Z,0
2016-12-24T02:05:02.163Z,0
2016-12-24T02:06:02.148Z,0
2016-12-24T02:07:02.442Z,0
2016-12-24T02:08:02.125Z,0
2016-12-24T02:09:02.103Z,0
2016-12-24T02:10:02.105Z,0
2016-12-24T02:11:02.077Z,0
2016-12-24T02:12:02.064Z,0
2016-12-24T02:13:02.048Z,0
2016-12-24T02:14:02.039Z,0
2016-12-24T02:15:02.020Z,0
2016-12-24T02:16:02.006Z,0
2016-12-24T02:17:01.992Z,0
2016-12-24T02:18:01.977Z,0
2016-12-24T02:19:01.959Z,0
2016-12-24T02:20:01.947Z,0
2016-12-24T02:21:01.934Z,0
2016-12-24T02:22:01.921Z,0
2016-12-24T02:23:01.903Z,0
2016-12-24T02:24:01.888Z,0
2016-12-24T02:25:01.876Z,0
2016-12-24T02:26:01.863Z,0
2016-12-24T02:27:01.847Z,0
2016-12-24T02:28:01.856Z,0
2016-12-24T02:29:01.826Z,0
2016-12-24T02:30:01.802Z,0
2016-12-24T02:31:01.815Z,0
2016-12-24T02:32:01.775Z,0
2016-12-24T02:33:01.764Z,0
2016-12-24T02:34:01.756Z,0
2016-12-24T02:35:01.730Z,0
2016-12-24T02:36:01.723Z,0
2016-12-24T02:37:01.704Z,0
2016-12-24T02:38:01.694Z,0
2016-12-24T02:39:01.673Z,0
2016-12-24T02:40:01.662Z,0
2016-12-24T02:41:01.651Z,0
2016-12-24T02:42:01.934Z,0
2016-12-24T02:43:01.623Z,0
2016-12-24T02:44:01.604Z,0
2016-12-24T02:45:01.618Z,0
2016-12-24T02:46:01.579Z,0
2016-12-24T02:47:01.565Z,0
2016-12-24T02:48:01.545Z,0
2016-12-24T02:49:01.531Z,0
2016-12-24T02:50:01.524Z,0
2016-12-24T02:51:01.506Z,0
2016-12-24T02:52:01.491Z,0
2016-12-24T02:53:01.479Z,0
2016-12-24T02:54:01.465Z,0
2016-12-24T02:55:01.451Z,0
2016-12-24T02:56:01.443Z,0
2016-12-24T02:57:01.418Z,0
2016-12-24T02:58:01.713Z,0
2016-12-24T02:59:01.403Z,0
2016-12-24T03:00:01.378Z,0
2016-12-24T03:01:01.363Z,0
2016-12-24T03:02:01.657Z,0
2016-12-24T03:03:01.342Z,0
2016-12-24T03:04:01.640Z,0
2016-12-24T03:05:01.331Z,0
2016-12-24T03:06:01.326Z,0
2016-12-24T03:07:01.284Z,0
2016-12-24T03:08:01.267Z,0
2016-12-24T03:09:01.255Z,0
2016-12-24T03:10:01.241Z,0
2016-12-24T03:11:01.227Z,0
2016-12-24T03:12:01.212Z,0
2016-12-24T03:13:01.194Z,0
2016-12-24T03:14:01.188Z,0
2016-12-24T03:15:01.168Z,0
2016-12-24T03:16:01.160Z,0
2016-12-24T03:17:01.145Z,0
2016-12-24T03:18:01.130Z,0
2016-12-24T03:19:01.145Z,0
2016-12-24T03:20:01.100Z,0
2016-12-24T03:21:01.088Z,0
2016-12-24T03:22:01.074Z,0
2016-12-24T03:23:01.068Z,0
2016-12-24T03:24:01.046Z,0
2016-12-24T03:25:01.035Z,0
2016-12-24T03:26:01.024Z,0
2016-12-24T03:27:01.006Z,0
2016-12-24T03:28:00.995Z,0
2016-12-24T03:29:00.980Z,0
2016-12-24T03:30:00.971Z,0
2016-12-24T03:31:00.955Z,0
2016-12-24T03:32:01.260Z,0
2016-12-24T03:33:00.928Z,0
2016-12-24T03:34:00.914Z,0
2016-12-24T03:35:00.907Z,0
2016-12-24T03:36:00.889Z,0
2016-12-24T03:37:01.177Z,0
2016-12-24T03:38:00.863Z,0
2016-12-24T03:39:00.854Z,0
2016-12-24T03:40:00.835Z,0
2016-12-24T03:41:00.823Z,0
2016-12-24T03:42:00.813Z,0
2016-12-24T03:43:00.799Z,0
2016-12-24T03:44:00.783Z,0
2016-12-24T03:45:00.774Z,0
2016-12-24T03:46:01.071Z,0
2016-12-24T03:47:00.772Z,0
2016-12-24T03:48:00.732Z,0
2016-12-24T03:49:00.715Z,0
2016-12-24T03:50:00.702Z,0
2016-12-24T03:51:00.693Z,0
2016-12-24T03:52:00.670Z,0
2016-12-24T03:53:00.667Z,0
2016-12-24T03:54:00.651Z,0
2016-12-24T03:55:00.636Z,0
2016-12-24T03:56:00.624Z,0
2016-12-24T03:57:00.610Z,0
2016-12-24T03:58:00.599Z,0
2016-12-24T03:59:00.582Z,0
2016-12-24T04:00:00.885Z,0
2016-12-24T04:01:00.562Z,0
2016-12-24T04:02:00.545Z,0
2016-12-24T04:03:00.536Z,0
2016-12-24T04:04:00.528Z,0
2016-12-24T04:05:00.508Z,0
2016-12-24T04:06:00.496Z,0
2016-12-24T04:07:00.483Z,0
2016-12-24T04:08:00.475Z,0
2016-12-24T04:09:00.461Z,0
2016-12-24T04:10:00.446Z,0
2016-12-24T04:11:00.433Z,0
2016-12-24T04:12:00.424Z,0
2016-12-24T04:13:00.407Z,0
2016-12-24T04:14:00.401Z,0
2016-12-24T04:15:00.384Z,0
2016-12-24T04:16:00.369Z,0
2016-12-24T04:17:00.357Z,0
2016-12-24T04:18:00.356Z,0
2016-12-24T04:19:00.644Z,0
2016-12-24T04:20:00.319Z,0
2016-12-24T04:21:00.610Z,0
2016-12-24T04:22:00.295Z,0
2016-12-24T04:23:00.285Z,0
2016-12-24T04:24:00.269Z,0
2016-12-24T04:25:00.258Z,0
2016-12-24T04:26:00.249Z,0
2016-12-24T04:27:00.234Z,0
2016-12-24T04:28:00.232Z,0
2016-12-24T04:29:00.218Z,0
2016-12-24T04:30:00.204Z,0
2016-12-24T04:31:00.191Z,0
2016-12-24T04:32:00.178Z,0
2016-12-24T04:33:00.157Z,0
2016-12-24T04:34:00.146Z,0
2016-12-24T04:35:00.133Z,0
2016-12-24T04:36:00.120Z,0
2016-12-24T04:37:00.114Z,0
2016-12-24T04:38:00.100Z,0
2016-12-24T04:39:00.086Z,0
2016-12-24T04:40:00.075Z,0
2016-12-24T04:41:00.060Z,0
2016-12-24T04:42:00.046Z,0
2016-12-24T04:43:00.039Z,0
2016-12-24T04:44:00.023Z,0
2016-12-24T04:45:00.006Z,0
2016-12-24T04:46:00.001Z,0
2016-12-24T04:47:00.006Z,0
2016-12-24T04:47:59.974Z,0
2016-12-24T04:48:59.962Z,0
2016-12-24T04:49:59.947Z,0
2016-12-24T04:50:59.935Z,0
2016-12-24T04:51:59.923Z,0
2016-12-24T04:52:59.909Z,0
2016-12-24T04:53:59.902Z,0
2016-12-24T04:55:00.193Z,0
2016-12-24T04:55:59.872Z,0
2016-12-24T04:56:59.863Z,0
2016-12-24T04:57:59.851Z,0
2016-12-24T04:58:59.841Z,0
2016-12-24T04:59:59.822Z,0
2016-12-24T05:00:59.812Z,0
2016-12-24T05:01:59.796Z,0
2016-12-24T05:02:59.786Z,0
2016-12-24T05:03:59.776Z,0
2016-12-24T05:04:59.765Z,0
2016-12-24T05:05:59.754Z,0
2016-12-24T05:06:59.735Z,0
2016-12-24T05:07:59.730Z,0
2016-12-24T05:08:59.712Z,0
2016-12-24T05:09:59.706Z,0
2016-12-24T05:10:59.688Z,0
2016-12-24T05:11:59.678Z,0
2016-12-24T05:12:59.668Z,0
2016-12-24T05:13:59.653Z,0
2016-12-24T05:14:59.641Z,0
2016-12-24T05:15:59.630Z,0
2016-12-24T05:16:59.917Z,0
2016-12-24T05:17:59.603Z,0
2016-12-24T05:18:59.896Z,0
2016-12-24T05:19:59.581Z,0
2016-12-24T05:20:59.565Z,0
2016-12-24T05:21:59.557Z,0
2016-12-24T05:22:59.542Z,0
2016-12-24T05:23:59.530Z,0
2016-12-24T05:24:59.544Z,0
2016-12-24T05:25:59.508Z,0
2016-12-24T05:26:59.495Z,0
2016-12-24T05:27:59.505Z,0
2016-12-24T05:28:59.469Z,0
2016-12-24T05:29:59.465Z,0
2016-12-24T05:30:59.449Z,0
2016-12-24T05:31:59.432Z,0
2016-12-24T05:32:59.422Z,0
2016-12-24T05:33:59.413Z,0
2016-12-24T05:34:59.397Z,0
2016-12-24T05:35:59.390Z,0
2016-12-24T05:36:59.378Z,0
2016-12-24T05:37:59.359Z,0
2016-12-24T05:38:59.350Z,0
2016-12-24T05:39:59.333Z,0
2016-12-24T05:40:59.324Z,0
2016-12-24T05:41:59.310Z,0
2016-12-24T05:42:59.610Z,0
2016-12-24T05:43:59.288Z,0
2016-12-24T05:44:59.276Z,0
2016-12-24T05:45:59.291Z,0
2016-12-24T05:46:59.259Z,0
2016-12-24T05:47:59.245Z,0
2016-12-24T05:48:59.259Z,0
2016-12-24T05:49:59.218Z,0
2016-12-24T05:50:59.210Z,0
2016-12-24T05:51:59.192Z,0
2016-12-24T05:52:59.179Z,0
2016-12-24T05:53:59.172Z,0
2016-12-24T05:54:59.158Z,0
2016-12-24T05:55:59.149Z,0
2016-12-24T05:56:59.136Z,0
2016-12-24T05:57:59.124Z,0
2016-12-24T05:58:59.109Z,0
2016-12-24T05:59:59.098Z,0
2016-12-24T06:00:59.090Z,0
2016-12-24T06:01:59.106Z,0
2016-12-24T06:02:59.079Z,0
2016-12-24T06:03:59.051Z,0
2016-12-24T06:04:59.040Z,0
2016-12-24T06:05:59.029Z,0
2016-12-24T06:06:59.013Z,0
2016-12-24T06:07:59.004Z,0
2016-12-24T06:08:58.990Z,0
2016-12-24T06:09:58.983Z,0
2016-12-24T06:10:58.969Z,0
2016-12-24T06:11:58.956Z,0
2016-12-24T06:12:58.942Z,0
2016-12-24T06:13:58.937Z,0
2016-12-24T06:14:58.920Z,0
2016-12-24T06:15:58.914Z,0
2016-12-24T06:16:58.895Z,0
2016-12-24T06:17:58.883Z,0
2016-12-24T06:18:58.877Z,0
2016-12-24T06:19:58.860Z,0
2016-12-24T06:20:58.853Z,0
2016-12-24T06:21:58.836Z,0
2016-12-24T06:22:58.825Z,0
2016-12-24T06:23:58.815Z,0
2016-12-24T06:24:58.798Z,0
2016-12-24T06:25:58.786Z,0
2016-12-24T06:26:58.807Z,0
2016-12-24T06:27:58.763Z,0
2016-12-24T06:28:58.750Z,0
2016-12-24T06:29:58.741Z,0
2016-12-24T06:30:58.725Z,0
2016-12-24T06:31:58.719Z,0
2016-12-24T06:32:58.707Z,0
2016-12-24T06:33:58.693Z,0
2016-12-24T06:34:58.682Z,0
2016-12-24T06:35:58.667Z,0
2016-12-24T06:36:58.659Z,0
2016-12-24T06:37:58.675Z,0
2016-12-24T06:38:58.632Z,0
2016-12-24T06:39:58.617Z,0
2016-12-24T06:40:58.609Z,0
2016-12-24T06:41:58.597Z,0
2016-12-24T06:42:58.588Z,0
2016-12-24T06:43:58.599Z,0
2016-12-24T06:44:58.557Z,0
2016-12-24T06:45:58.550Z,0
2016-12-24T06:46:58.535Z,0
2016-12-24T06:47:58.522Z,0
2016-12-24T06:48:58.513Z,0
2016-12-24T06:49:58.502Z,0
2016-12-24T06:50:58.484Z,0
2016-12-24T06:51:58.474Z,0
2016-12-24T06:52:58.463Z,0
2016-12-24T06:53:58.457Z,0
2016-12-24T06:54:58.440Z,0
2016-12-24T06:55:58.428Z,0
2016-12-24T06:56:58.415Z,0
2016-12-24T06:57:58.402Z,0
2016-12-24T06:58:58.390Z,0
2016-12-24T06:59:58.378Z,0
2016-12-24T07:00:58.368Z,0
2016-12-24T07:01:58.355Z,0
2016-12-24T07:02:58.340Z,0
2016-12-24T07:03:58.333Z,0
2016-12-24T07:04:58.315Z,0
2016-12-24T07:05:58.305Z,0
2016-12-24T07:06:58.296Z,0
2016-12-24T07:07:58.278Z,0
2016-12-24T07:08:58.270Z,0
2016-12-24T07:09:58.257Z,0
2016-12-24T07:10:58.243Z,0
2016-12-24T07:11:58.235Z,0
2016-12-24T07:12:58.222Z,0
2016-12-24T07:13:58.209Z,0
2016-12-24T07:14:58.197Z,0
2016-12-24T07:15:58.185Z,0
2016-12-24T07:16:58.177Z,0
2016-12-24T07:17:58.166Z,0
2016-12-24T07:18:58.151Z,0
2016-12-24T07:19:58.140Z,0
2016-12-24T07:20:58.129Z,0
2016-12-24T07:21:58.114Z,0
2016-12-24T07:22:58.100Z,0
2016-12-24T07:23:58.122Z,0
2016-12-24T07:24:58.079Z,0
2016-12-24T07:25:58.066Z,5
2016-12-24T07:26:58.061Z,5
2016-12-24T07:27:58.345Z,5
2016-12-24T07:28:58.039Z,5
2016-12-24T07:29:58.019Z,5
2016-12-24T07:30:58.004Z,5
2016-12-24T07:31:58.000Z,5
2016-12-24T07:32:57.985Z,10
2016-12-24T07:33:57.971Z,5
2016-12-24T07:34:57.963Z,10
2016-12-24T07:35:57.948Z,10
2016-12-24T07:36:57.966Z,10
2016-12-24T07:37:57.923Z,15
2016-12-24T07:38:57.918Z,10
2016-12-24T07:39:57.902Z,10
2016-12-24T07:40:57.888Z,10
2016-12-24T07:41:57.883Z,10
2016-12-24T07:42:57.863Z,15
2016-12-24T07:43:57.852Z,15
2016-12-24T07:44:57.838Z,25
2016-12-24T07:45:57.827Z,25
2016-12-24T07:46:57.815Z,20
2016-12-24T07:47:57.804Z,15
2016-12-24T07:48:57.791Z,15
2016-12-24T07:49:57.783Z,25
2016-12-24T07:50:57.769Z,30
2016-12-24T07:51:57.758Z,30
2016-12-24T07:52:57.743Z,30
2016-12-24T07:53:57.732Z,30
2016-12-24T07:54:57.730Z,30
2016-12-24T07:55:57.714Z,25
2016-12-24T07:56:57.735Z,20
2016-12-24T07:57:57.691Z,20
2016-12-24T07:58:57.674Z,20
2016-12-24T07:59:57.665Z,15
2016-12-24T08:00:57.650Z,15
2016-12-24T08:01:57.644Z,15
2016-12-24T08:02:57.627Z,15
2016-12-24T08:03:57.614Z,15
2016-12-24T08:04:57.608Z,15
2016-12-24T08:05:57.592Z,10
2016-12-24T08:06:57.581Z,20
2016-12-24T08:07:57.874Z,20
2016-12-24T08:08:57.559Z,25
2016-12-24T08:09:57.547Z,20
2016-12-24T08:10:57.534Z,15
2016-12-24T08:11:57.524Z,15
2016-12-24T08:12:57.817Z,15
2016-12-24T08:13:57.503Z,15
2016-12-24T08:14:57.513Z,20
2016-12-24T08:15:57.476Z,15
2016-12-24T08:16:57.468Z,15
2016-12-24T08:17:57.461Z,20
2016-12-24T08:18:57.441Z,20
2016-12-24T08:19:57.428Z,15
2016-12-24T08:20:57.416Z,15
2016-12-24T08:21:57.408Z,20
2016-12-24T08:22:57.399Z,25
2016-12-24T08:23:57.689Z,25
2016-12-24T08:24:57.371Z,30
2016-12-24T08:25:57.369Z,30
2016-12-24T08:26:57.354Z,35
2016-12-24T08:27:57.334Z,40
2016-12-24T08:28:57.323Z,45
2016-12-24T08:29:57.613Z,50
2016-12-24T08:30:57.302Z,55
2016-12-24T08:31:57.295Z,60
2016-12-24T08:32:57.283Z,60
2016-12-24T08:33:57.274Z,60
2016-12-24T08:34:57.257Z,60
2016-12-24T08:35:57.241Z,65
2016-12-24T08:36:57.235Z,70
2016-12-24T08:37:57.222Z,80
2016-12-24T08:38:57.217Z,85
2016-12-24T08:39:57.205Z,95
2016-12-24T08:40:57.186Z,90
2016-12-24T08:41:57.177Z,85
2016-12-24T08:42:57.162Z,70
2016-12-24T08:43:57.151Z,65
2016-12-24T08:44:57.141Z,65
2016-12-24T08:45:57.130Z,65
2016-12-24T08:46:57.116Z,75
2016-12-24T08:47:57.107Z,80
2016-12-24T08:48:57.098Z,70
2016-12-24T08:49:57.085Z,65
2016-12-24T08:50:57.071Z,65
2016-12-24T08:51:57.065Z,65
2016-12-24T08:52:57.052Z,70
2016-12-24T08:53:57.037Z,65
2016-12-24T08:54:57.047Z,65
2016-12-24T08:55:57.024Z,90
2016-12-24T08:56:57.009Z,90
2016-12-24T08:57:57.300Z,90
2016-12-24T08:58:56.987Z,85
2016-12-24T08:59:56.970Z,95
2016-12-24T09:00:56.960Z,125
2016-12-24T09:01:56.952Z,120
2016-12-24T09:02:56.938Z,105
2016-12-24T09:03:56.932Z,95
2016-12-24T09:04:56.916Z,80
2016-12-24T09:05:56.907Z,70
2016-12-24T09:06:56.897Z,60
2016-12-24T09:07:56.894Z,60
2016-12-24T09:08:56.873Z,50
2016-12-24T09:09:56.870Z,40
2016-12-24T09:10:56.849Z,40
2016-12-24T09:11:56.842Z,35
2016-12-24T09:12:56.829Z,35
2016-12-24T09:13:56.823Z,30
2016-12-24T09:14:56.834Z,45
2016-12-24T09:15:56.799Z,60
2016-12-24T09:16:56.788Z,55
2016-12-24T09:17:56.778Z,70
2016-12-24T09:18:56.774Z,95
2016-12-24T09:19:56.756Z,80
2016-12-24T09:20:56.745Z,65
2016-12-24T09:21:56.733Z,65
2016-12-24T09:22:56.724Z,65
2016-12-24T09:23:56.712Z,75
2016-12-24T09:24:56.700Z,115
2016-12-24T09:25:56.698Z,125
2016-12-24T09:26:56.681Z,115
2016-12-24T09:27:56.670Z,110
2016-12-24T09:28:56.656Z,115
2016-12-24T09:29:56.644Z,95
2016-12-24T09:30:56.636Z,105
2016-12-24T09:31:56.625Z,110
2016-12-24T09:32:56.617Z,115
2016-12-24T09:33:56.606Z,125
2016-12-24T09:34:56.598Z,125
2016-12-24T09:35:56.585Z,135
2016-12-24T09:36:56.578Z,145
2016-12-24T09:37:56.564Z,145
2016-12-24T09:38:56.550Z,145
2016-12-24T09:39:56.537Z,140
2016-12-24T09:40:56.527Z,135
2016-12-24T09:41:56.522Z,130
2016-12-24T09:42:56.517Z,125
2016-12-24T09:43:56.499Z,120
2016-12-24T09:44:56.484Z,120
2016-12-24T09:45:56.479Z,120
2016-12-24T09:46:56.468Z,125
2016-12-24T09:47:56.459Z,125
2016-12-24T09:48:56.451Z,125
2016-12-24T09:49:56.747Z,130
2016-12-24T09:50:56.427Z,125
2016-12-24T09:51:56.413Z,110
2016-12-24T09:52:56.406Z,120
2016-12-24T09:53:56.397Z,115
2016-12-24T09:54:56.387Z,90
2016-12-24T09:55:56.376Z,85
2016-12-24T09:56:56.382Z,105
2016-12-24T09:57:56.356Z,110
2016-12-24T09:58:56.344Z,105
2016-12-24T09:59:56.334Z,95
2016-12-24T10:00:56.323Z,95
2016-12-24T10:01:56.315Z,85
2016-12-24T10:02:56.299Z,85
2016-12-24T10:03:56.298Z,95
2016-12-24T10:04:56.282Z,105
2016-12-24T10:05:56.273Z,115
2016-12-24T10:06:56.261Z,120
2016-12-24T10:07:56.250Z,120
2016-12-24T10:08:56.241Z,120
2016-12-24T10:09:56.235Z,120
2016-12-24T10:10:56.223Z,120
2016-12-24T10:11:56.213Z,120
2016-12-24T10:12:56.506Z,120
2016-12-24T10:13:56.193Z,125
2016-12-24T10:14:56.180Z,130
2016-12-24T10:15:56.181Z,130
2016-12-24T10:16:56.160Z,130
2016-12-24T10:17:56.154Z,125
2016-12-24T10:18:56.173Z,125
2016-12-24T10:19:56.438Z,120
2016-12-24T10:20:56.119Z,120
2016-12-24T10:21:56.439Z,120
2016-12-24T10:22:56.105Z,120
2016-12-24T10:23:56.093Z,125
2016-12-24T10:24:56.087Z,120
2016-12-24T10:25:56.373Z,105
2016-12-24T10:26:56.059Z,90
2016-12-24T10:27:56.059Z,80
2016-12-24T10:28:56.041Z,75
2016-12-24T10:29:56.030Z,90
2016-12-24T10:30:56.018Z,110
2016-12-24T10:31:56.043Z,125
2016-12-24T10:32:56.000Z,135
2016-12-24T10:33:55.991Z,135
2016-12-24T10:34:55.977Z,145
2016-12-24T10:35:55.969Z,150
2016-12-24T10:36:55.956Z,150
2016-12-24T10:37:55.947Z,145
2016-12-24T10:38:55.938Z,130
2016-12-24T10:39:55.929Z,115
2016-12-24T10:40:55.917Z,115
2016-12-24T10:41:56.210Z,90
2016-12-24T10:42:55.902Z,85
2016-12-24T10:43:55.890Z,85
2016-12-24T10:44:55.878Z,105
2016-12-24T10:45:55.872Z,95
2016-12-24T10:46:55.854Z,120
2016-12-24T10:47:55.882Z,130
2016-12-24T10:48:55.837Z,120
2016-12-24T10:49:55.829Z,110
2016-12-24T10:50:55.815Z,110
2016-12-24T10:51:55.814Z,120
2016-12-24T10:52:55.798Z,145
2016-12-24T10:53:55.787Z,150
2016-12-24T10:54:55.794Z,145
2016-12-24T10:55:55.770Z,140
2016-12-24T10:56:55.758Z,155
2016-12-24T10:57:55.750Z,150
2016-12-24T10:58:55.742Z,130
2016-12-24T10:59:55.731Z,125
2016-12-24T11:00:55.719Z,125
2016-12-24T11:01:55.705Z,125
2016-12-24T11:02:55.707Z,120
2016-12-24T11:03:55.690Z,115
2016-12-24T11:04:55.686Z,120
2016-12-24T11:05:55.672Z,120
2016-12-24T11:06:55.663Z,135
2016-12-24T11:07:55.655Z,150
2016-12-24T11:08:55.643Z,165
2016-12-24T11:09:55.634Z,175
2016-12-24T11:10:55.633Z,185
2016-12-24T11:11:55.615Z,185
2016-12-24T11:12:55.612Z,180
2016-12-24T11:13:55.598Z,190
2016-12-24T11:14:55.585Z,190
2016-12-24T11:15:55.576Z,195
2016-12-24T11:16:55.564Z,195
2016-12-24T11:17:55.555Z,180
2016-12-24T11:18:55.544Z,150
2016-12-24T11:19:55.534Z,115
2016-12-24T11:20:55.529Z,115
2016-12-24T11:21:55.519Z,120
2016-12-24T11:22:55.506Z,110
2016-12-24T11:23:55.498Z,105
2016-12-24T11:24:55.519Z,125
2016-12-24T11:25:55.788Z,135
2016-12-24T11:26:55.466Z,140
2016-12-24T11:27:55.463Z,130
2016-12-24T11:28:55.449Z,120
2016-12-24T11:29:55.440Z,100
2016-12-24T11:30:55.440Z,80
2016-12-24T11:31:55.431Z,70
2016-12-24T11:32:55.412Z,75
2016-12-24T11:33:55.408Z,80
2016-12-24T11:34:55.398Z,95
2016-12-24T11:35:55.686Z,90
2016-12-24T11:36:55.375Z,75
2016-12-24T11:37:55.370Z,70
2016-12-24T11:38:55.356Z,65
2016-12-24T11:39:55.346Z,70
2016-12-24T11:40:55.339Z,80
2016-12-24T11:41:55.329Z,65
2016-12-24T11:42:55.318Z,45
2016-12-24T11:43:55.317Z,60
2016-12-24T11:44:55.295Z,70
2016-12-24T11:45:55.288Z,75
2016-12-24T11:46:55.279Z,80
2016-12-24T11:47:55.270Z,95
2016-12-24T11:48:55.258Z,110
2016-12-24T11:49:55.279Z,105
2016-12-24T11:50:55.239Z,105
2016-12-24T11:51:55.231Z,110
2016-12-24T11:52:55.246Z,110
2016-12-24T11:53:55.210Z,115
2016-12-24T11:54:55.199Z,135
2016-12-24T11:55:55.192Z,140
2016-12-24T11:56:55.192Z,130
2016-12-24T11:57:55.170Z,145
2016-12-24T11:58:55.463Z,155
2016-12-24T11:59:55.165Z,155
2016-12-24T12:00:55.146Z,150
2016-12-24T12:01:55.134Z,155
2016-12-24T12:02:55.126Z,160
2016-12-24T12:03:55.111Z,155
2016-12-24T12:04:55.104Z,150
2016-12-24T12:05:55.100Z,150
2016-12-24T12:06:55.085Z,150
2016-12-24T12:07:55.083Z,155
2016-12-24T12:08:55.071Z,160
2016-12-24T12:09:55.057Z,160
2016-12-24T12:10:55.056Z,145
2016-12-24T12:11:55.040Z,145
2016-12-24T12:12:55.339Z,155
2016-12-24T12:13:55.025Z,155
2016-12-24T12:14:55.011Z,150
2016-12-24T12:15:55.007Z,145
2016-12-24T12:16:54.995Z,140
2016-12-24T12:17:54.984Z,140
2016-12-24T12:18:54.981Z,140
2016-12-24T12:19:54.974Z,140
2016-12-24T12:20:54.956Z,135
2016-12-24T12:21:54.952Z,140
2016-12-24T12:22:54.975Z,130
2016-12-24T12:23:54.938Z,120
2016-12-24T12:24:54.923Z,115
2016-12-24T12:25:54.913Z,130
2016-12-24T12:26:54.901Z,145
2016-12-24T12:27:54.894Z,155
2016-12-24T12:28:54.890Z,155
2016-12-24T12:29:54.873Z,155
2016-12-24T12:30:54.869Z,155
2016-12-24T12:31:54.857Z,155
2016-12-24T12:32:55.152Z,145
2016-12-24T12:33:54.868Z,155
2016-12-24T12:34:54.834Z,155
2016-12-24T12:35:54.830Z,160
2016-12-24T12:36:54.824Z,165
2016-12-24T12:37:54.825Z,165
2016-12-24T12:38:54.796Z,160
2016-12-24T12:39:55.104Z,160
2016-12-24T12:40:55.080Z,160
2016-12-24T12:41:54.772Z,160
2016-12-24T12:42:54.759Z,160
2016-12-24T12:43:55.053Z,165
2016-12-24T12:44:55.044Z,170
2016-12-24T12:45:55.087Z,170
2016-12-24T12:46:54.723Z,165
2016-12-24T12:47:54.721Z,155
2016-12-24T12:48:54.705Z,150
2016-12-24T12:49:54.697Z,140
2016-12-24T12:50:54.689Z,135
2016-12-24T12:51:54.684Z,135
2016-12-24T12:52:54.666Z,130
2016-12-24T12:53:54.663Z,130
2016-12-24T12:54:54.652Z,135
2016-12-24T12:55:54.648Z,140
2016-12-24T12:56:54.941Z,140
2016-12-24T12:57:54.624Z,140
2016-12-24T12:58:54.616Z,140
2016-12-24T12:59:54.612Z,135
2016-12-24T13:00:54.599Z,130
2016-12-24T13:01:54.589Z,130
2016-12-24T13:02:54.889Z,120
2016-12-24T13:03:54.572Z,115
2016-12-24T13:04:54.561Z,105
2016-12-24T13:05:54.552Z,95
2016-12-24T13:06:54.546Z,95
2016-12-24T13:07:54.543Z,100
2016-12-24T13:08:54.542Z,105
2016-12-24T13:09:54.830Z,120
2016-12-24T13:10:54.512Z,130
2016-12-24T13:11:54.506Z,135
2016-12-24T13:12:54.493Z,130
2016-12-24T13:13:54.482Z,120
2016-12-24T13:14:54.477Z,115
2016-12-24T13:15:54.465Z,110
2016-12-24T13:16:54.455Z,115
2016-12-24T13:17:54.447Z,125
2016-12-24T13:18:54.443Z,140
2016-12-24T13:19:54.427Z,150
2016-12-24T13:20:54.419Z,150
2016-12-24T13:21:54.408Z,140
2016-12-24T13:22:54.398Z,130
2016-12-24T13:23:54.388Z,95
2016-12-24T13:24:54.686Z,80
2016-12-24T13:25:54.375Z,80
2016-12-24T13:26:54.370Z,70
2016-12-24T13:27:54.353Z,70
2016-12-24T13:28:54.346Z,70
2016-12-24T13:29:54.338Z,70
2016-12-24T13:30:54.328Z,70
2016-12-24T13:31:54.316Z,70
2016-12-24T13:32:54.311Z,70
2016-12-24T13:33:54.300Z,70
2016-12-24T13:34:54.332Z,70
2016-12-24T13:35:54.279Z,75
2016-12-24T13:36:54.275Z,75
2016-12-24T13:37:54.267Z,80
2016-12-24T13:38:54.255Z,80
2016-12-24T13:39:54.548Z,80
2016-12-24T13:40:54.236Z,75
2016-12-24T13:41:54.225Z,75
2016-12-24T13:42:54.217Z,70
2016-12-24T13:43:54.207Z,65
2016-12-24T13:44:54.199Z,60
2016-12-24T13:45:54.191Z,60
2016-12-24T13:46:54.176Z,60
2016-12-24T13:47:54.183Z,55
2016-12-24T13:48:54.164Z,55
2016-12-24T13:49:54.151Z,50
2016-12-24T13:50:54.140Z,45
2016-12-24T13:51:54.133Z,40
2016-12-24T13:52:54.424Z,35
2016-12-24T13:53:54.417Z,35
2016-12-24T13:54:54.100Z,35
2016-12-24T13:55:54.096Z,35
2016-12-24T13:56:54.082Z,35
2016-12-24T13:57:54.073Z,35
2016-12-24T13:58:54.070Z,35
2016-12-24T13:59:54.050Z,35
2016-12-24T14:00:54.045Z,40
2016-12-24T14:01:54.039Z,40
2016-12-24T14:02:54.027Z,35
2016-12-24T14:03:54.012Z,35
2016-12-24T14:04:54.007Z,30
2016-12-24T14:05:53.993Z,25
2016-12-24T14:06:53.991Z,20
2016-12-24T14:07:53.969Z,20
2016-12-24T14:08:53.965Z,20
2016-12-24T14:09:53.953Z,20
2016-12-24T14:10:53.952Z,20
2016-12-24T14:11:53.931Z,20
2016-12-24T14:12:53.922Z,20
2016-12-24T14:13:53.914Z,20
2016-12-24T14:14:53.909Z,20
2016-12-24T14:15:53.896Z,20
2016-12-24T14:16:53.885Z,20
2016-12-24T14:17:53.872Z,20
2016-12-24T14:18:53.875Z,15
2016-12-24T14:19:53.858Z,15
2016-12-24T14:20:53.842Z,15
2016-12-24T14:21:53.839Z,15
2016-12-24T14:22:53.826Z,15
2016-12-24T14:23:53.816Z,15